Barreal, Argentina
Current Conditions -  °F | °C
As of 10:00 AM on Sunday 23 Nov 2014 (Local Time) from SAME Reporting Station
Clear Clear  
Wind Chill: 75°   Ceiling: Unl
Heat Index: 75°   Visibility: 6mi
Dew Point: 46°   Wind: 3mph
Humidity: 36%   Direction: 90°E
Pressure: 29.74"   Gusts: NA
Location:  31.63°S, 69.47°W
Report Text: SAME 231300Z 09003KT CAVOK 24/08 Q1007
Loading
Personal Weather Stations






























Interactive Weather Map New forecast layout! Learn more

10-Day Weather Forecast

Advertisements
Track Severe Weather on mobile